createdAt,value
2019-03-05T00:01:26.318Z,2.03
2019-03-05T00:03:57.873Z,2.03
2019-03-05T00:06:29.850Z,2.37
2019-03-05T00:09:01.767Z,2.60
2019-03-05T00:11:34.955Z,1.90
2019-03-05T00:14:06.471Z,2.30
2019-03-05T00:16:39.055Z,2.03
2019-03-05T00:19:10.635Z,2.53
2019-03-05T00:21:42.148Z,2.70
2019-03-05T00:24:58.044Z,2.27
2019-03-05T00:27:31.051Z,3.10
2019-03-05T00:30:35.471Z,2.70
2019-03-05T00:33:28.778Z,2.33
2019-03-05T00:36:14.738Z,2.20
2019-03-05T00:39:22.295Z,2.83
2019-03-05T00:42:07.218Z,2.70
2019-03-05T00:45:25.410Z,2.90
2019-03-05T00:48:41.262Z,2.80
2019-03-05T00:51:47.486Z,2.50
2019-03-05T00:54:38.983Z,3.17
2019-03-05T00:57:39.760Z,2.40
2019-03-05T01:00:43.220Z,2.83
2019-03-05T01:03:51.383Z,2.57
2019-03-05T01:06:25.579Z,2.80
2019-03-05T01:08:58.095Z,2.63
2019-03-05T01:11:29.630Z,2.90
2019-03-05T01:14:01.371Z,2.80
2019-03-05T01:16:35.597Z,2.73
2019-03-05T01:19:07.397Z,2.60
2019-03-05T01:21:38.997Z,2.53
2019-03-05T01:24:10.511Z,2.77
2019-03-05T01:26:42.030Z,2.90
2019-03-05T01:29:13.649Z,2.80
2019-03-05T01:31:46.976Z,2.60
2019-03-05T01:34:20.196Z,2.37
2019-03-05T01:36:59.758Z,2.70
2019-03-05T01:39:33.831Z,2.60
2019-03-05T01:42:07.174Z,2.63
2019-03-05T01:44:39.969Z,2.60
2019-03-05T01:47:11.582Z,3.27
2019-03-05T01:49:43.406Z,2.50
2019-03-05T01:52:15.784Z,2.90
2019-03-05T01:54:47.585Z,2.47
2019-03-05T01:57:19.148Z,2.43
2019-03-05T01:59:50.651Z,2.63
2019-03-05T02:02:22.244Z,2.83
2019-03-05T02:04:54.140Z,2.63
2019-03-05T02:07:26.150Z,2.60
2019-03-05T02:09:57.712Z,2.67
2019-03-05T02:12:29.265Z,2.87
2019-03-05T02:15:00.947Z,2.73
2019-03-05T02:17:32.826Z,2.90
2019-03-05T02:20:08.271Z,2.60
2019-03-05T02:22:40.007Z,2.60
2019-03-05T02:25:28.349Z,2.93
2019-03-05T02:28:33.340Z,2.73
2019-03-05T02:31:43.251Z,2.47
2019-03-05T02:34:47.778Z,2.67
2019-03-05T02:37:36.214Z,2.60
2019-03-05T02:40:21.434Z,2.87
2019-03-05T02:43:03.711Z,3.00
2019-03-05T02:45:51.893Z,2.63
2019-03-05T02:48:53.647Z,2.70
2019-03-05T02:52:03.349Z,3.13
2019-03-05T02:55:08.106Z,3.20
2019-03-05T02:57:39.389Z,3.00
2019-03-05T03:00:13.003Z,3.10
2019-03-05T03:02:46.217Z,3.13
2019-03-05T03:05:19.373Z,2.90
2019-03-05T03:07:51.133Z,3.70
2019-03-05T03:10:25.319Z,3.70
2019-03-05T03:12:57.036Z,3.73
2019-03-05T03:15:28.602Z,3.20
2019-03-05T03:18:00.188Z,3.53
2019-03-05T03:20:31.707Z,3.63
2019-03-05T03:23:03.239Z,3.87
2019-03-05T03:25:34.789Z,3.70
2019-03-05T03:28:06.365Z,3.77
2019-03-05T03:30:38.183Z,3.80
2019-03-05T03:33:09.807Z,3.40
2019-03-05T03:35:41.394Z,3.87
2019-03-05T03:38:13.369Z,3.97
2019-03-05T03:40:45.422Z,3.93
2019-03-05T03:43:16.937Z,4.53
2019-03-05T03:45:48.453Z,4.00
2019-03-05T03:48:20.023Z,4.10
2019-03-05T03:50:51.683Z,3.50
2019-03-05T03:53:23.217Z,2.60
2019-03-05T03:55:54.962Z,4.53
2019-03-05T03:58:26.607Z,3.63
2019-03-05T04:00:58.347Z,4.33
2019-03-05T04:03:31.612Z,3.57
2019-03-05T04:06:03.635Z,4.27
2019-03-05T04:08:35.199Z,3.67
2019-03-05T04:11:06.738Z,3.93
2019-03-05T04:13:38.470Z,4.07
2019-03-05T04:16:10.036Z,3.80
2019-03-05T04:18:41.609Z,3.63
2019-03-05T04:21:13.570Z,3.90
2019-03-05T04:23:45.331Z,4.00
2019-03-05T04:26:16.835Z,3.60
2019-03-05T04:28:48.338Z,4.13
2019-03-05T04:31:19.948Z,3.20
2019-03-05T04:33:51.471Z,3.40
2019-03-05T04:36:23.529Z,4.83
2019-03-05T04:38:55.121Z,2.93
2019-03-05T04:41:26.774Z,3.27
2019-03-05T04:43:59.418Z,3.40
2019-03-05T04:46:30.766Z,3.20
2019-03-05T04:49:18.495Z,3.40
2019-03-05T04:51:53.120Z,4.10
2019-03-05T04:54:24.747Z,3.57
2019-03-05T04:56:56.340Z,3.00
2019-03-05T04:59:28.065Z,3.30
2019-03-05T05:01:59.548Z,3.43
2019-03-05T05:04:31.192Z,3.40
2019-03-05T05:07:03.174Z,3.13
2019-03-05T05:09:34.782Z,3.70
2019-03-05T05:12:06.319Z,3.40
2019-03-05T05:14:38.095Z,3.20
2019-03-05T05:17:09.644Z,3.37
2019-03-05T05:19:41.445Z,2.40
2019-03-05T05:22:12.955Z,2.53
2019-03-05T05:24:45.521Z,3.43
2019-03-05T05:27:17.088Z,2.27
2019-03-05T05:29:48.612Z,2.50
2019-03-05T05:32:20.217Z,3.00
2019-03-05T05:34:51.890Z,3.30
2019-03-05T05:37:23.544Z,2.80
2019-03-05T05:40:29.076Z,2.70
2019-03-05T05:43:00.792Z,3.07
2019-03-05T05:45:37.546Z,2.40
2019-03-05T05:48:09.182Z,2.83
2019-03-05T05:50:40.874Z,2.23
2019-03-05T05:53:12.472Z,2.70
2019-03-05T05:55:44.214Z,3.47
2019-03-05T05:58:15.866Z,2.63
2019-03-05T06:00:49.220Z,2.43
2019-03-05T06:03:20.805Z,2.40
2019-03-05T06:05:52.382Z,2.30
2019-03-05T06:08:23.984Z,2.27
2019-03-05T06:10:55.587Z,2.67
2019-03-05T06:13:27.694Z,2.30
2019-03-05T06:15:59.476Z,2.77
2019-03-05T06:18:31.058Z,2.77
2019-03-05T06:21:02.837Z,2.10
2019-03-05T06:23:34.478Z,2.23
2019-03-05T06:26:08.553Z,1.97
2019-03-05T06:28:39.719Z,2.40
2019-03-05T06:31:11.632Z,2.37
2019-03-05T06:33:43.363Z,2.43
2019-03-05T06:36:15.084Z,2.50
2019-03-05T06:38:47.016Z,3.00
2019-03-05T06:41:18.919Z,2.30
2019-03-05T06:43:50.579Z,2.40
2019-03-05T06:46:22.356Z,2.77
2019-03-05T06:48:54.144Z,2.70
2019-03-05T06:51:25.909Z,2.27
2019-03-05T06:53:57.691Z,2.43
2019-03-05T06:56:29.466Z,3.13
2019-03-05T06:59:01.160Z,2.13
2019-03-05T07:01:32.969Z,2.57
2019-03-05T07:04:04.712Z,2.00
2019-03-05T07:06:55.803Z,2.60
2019-03-05T07:09:56.817Z,2.63
2019-03-05T07:12:44.643Z,2.90
2019-03-05T07:15:44.686Z,2.57
2019-03-05T07:18:30.321Z,1.27
2019-03-05T07:21:28.166Z,3.00
2019-03-05T07:24:21.939Z,2.80
2019-03-05T07:26:54.403Z,2.67
2019-03-05T07:29:26.007Z,2.83
2019-03-05T07:31:57.518Z,2.90
2019-03-05T07:34:30.807Z,2.10
2019-03-05T07:37:02.413Z,2.37
2019-03-05T07:39:34.428Z,2.73
2019-03-05T07:42:05.940Z,2.37
2019-03-05T07:44:37.440Z,3.70
2019-03-05T07:47:08.959Z,2.20
2019-03-05T07:49:44.078Z,2.77
2019-03-05T07:52:13.778Z,2.20
2019-03-05T07:54:46.413Z,2.37
2019-03-05T07:57:17.907Z,2.27
2019-03-05T07:59:49.495Z,2.00
2019-03-05T08:02:21.069Z,2.50
2019-03-05T08:04:52.671Z,2.17
2019-03-05T08:07:24.285Z,2.73
2019-03-05T08:09:59.650Z,3.03
2019-03-05T08:12:57.384Z,3.53
2019-03-05T08:16:02.734Z,2.40
2019-03-05T08:18:32.967Z,2.60
2019-03-05T08:21:04.904Z,1.83
2019-03-05T08:23:36.645Z,3.20
2019-03-05T08:26:08.358Z,3.17
2019-03-05T08:28:40.014Z,2.50
2019-03-05T08:31:13.076Z,3.03
2019-03-05T08:33:44.900Z,2.77
2019-03-05T08:36:16.757Z,3.27
2019-03-05T08:38:49.356Z,3.20
2019-03-05T08:41:21.368Z,2.90
2019-03-05T08:43:54.297Z,3.00
2019-03-05T08:46:27.196Z,3.37
2019-03-05T08:48:58.931Z,2.10
2019-03-05T08:51:30.857Z,2.20
2019-03-05T08:54:02.528Z,2.60
2019-03-05T08:56:34.425Z,2.70
2019-03-05T08:59:06.235Z,3.03
2019-03-05T09:01:38.426Z,2.67
2019-03-05T09:04:10.649Z,2.80
2019-03-05T09:06:42.333Z,2.50
2019-03-05T09:09:15.431Z,2.80
2019-03-05T09:11:47.830Z,2.73
2019-03-05T09:14:19.506Z,2.60
2019-03-05T09:16:51.508Z,3.30
2019-03-05T09:19:23.830Z,2.57
2019-03-05T09:21:55.398Z,2.70
2019-03-05T09:24:27.067Z,3.07
2019-03-05T09:26:59.115Z,3.40
2019-03-05T09:29:31.133Z,2.83
2019-03-05T09:32:02.824Z,3.10
2019-03-05T09:34:34.689Z,3.10
2019-03-05T09:37:06.531Z,2.70
2019-03-05T09:39:38.405Z,3.20
2019-03-05T09:42:10.204Z,2.97
2019-03-05T09:44:41.885Z,3.20
2019-03-05T09:47:13.817Z,2.27
2019-03-05T09:49:45.806Z,2.97
2019-03-05T09:52:17.628Z,2.30
2019-03-05T09:54:49.535Z,2.43
2019-03-05T09:57:21.272Z,2.93
2019-03-05T09:59:53.137Z,2.00
2019-03-05T10:02:24.978Z,2.83
2019-03-05T10:04:57.045Z,2.20
2019-03-05T10:07:29.107Z,2.57
2019-03-05T10:10:00.905Z,2.20
2019-03-05T10:12:33.719Z,2.53
2019-03-05T10:15:10.060Z,1.90
2019-03-05T10:17:41.849Z,2.30
2019-03-05T10:20:24.134Z,2.50
2019-03-05T10:22:57.915Z,2.17
2019-03-05T10:25:29.543Z,1.90
2019-03-05T10:28:01.273Z,2.10
2019-03-05T10:30:46.358Z,1.80
2019-03-05T10:33:18.565Z,2.33
2019-03-05T10:35:50.270Z,1.83
2019-03-05T10:38:22.002Z,2.60
2019-03-05T10:40:57.819Z,2.17
2019-03-05T10:43:29.784Z,2.50
2019-03-05T10:46:01.603Z,1.93
2019-03-05T10:48:33.356Z,2.60
2019-03-05T10:51:06.326Z,1.63
2019-03-05T10:53:38.264Z,2.53
2019-03-05T10:56:10.065Z,2.10
2019-03-05T10:58:41.832Z,1.50
2019-03-05T11:01:13.755Z,1.70
2019-03-05T11:06:24.660Z,1.93
2019-03-05T11:08:56.667Z,1.77
2019-03-05T11:11:28.461Z,2.17
2019-03-05T11:14:00.147Z,2.00
2019-03-05T11:16:31.855Z,2.20
2019-03-05T11:19:03.699Z,1.90
2019-03-05T11:21:35.558Z,2.27
2019-03-05T11:24:08.644Z,2.27
2019-03-05T11:26:40.289Z,2.10
2019-03-05T11:29:12.101Z,1.70
2019-03-05T11:31:43.808Z,2.07
2019-03-05T11:34:15.587Z,1.90
2019-03-05T11:36:47.234Z,2.20
2019-03-05T11:39:19.103Z,2.10
2019-03-05T11:41:50.868Z,2.07
2019-03-05T11:44:22.601Z,2.40
2019-03-05T11:46:54.544Z,2.02
2019-03-05T11:49:26.377Z,1.93
2019-03-05T11:51:58.103Z,2.47
2019-03-05T11:54:29.897Z,2.07
2019-03-05T11:57:01.821Z,2.20
2019-03-05T11:59:33.487Z,1.57
2019-03-05T12:02:05.479Z,1.75
2019-03-05T12:04:37.467Z,1.73
2019-03-05T12:07:09.147Z,1.70
2019-03-05T12:09:40.751Z,1.93
2019-03-05T12:12:12.467Z,1.50
2019-03-05T12:14:44.267Z,1.70
2019-03-05T12:17:16.118Z,1.30
2019-03-05T12:19:47.874Z,1.70
2019-03-05T12:22:20.238Z,1.42
2019-03-05T12:24:51.953Z,1.60
2019-03-05T12:27:23.759Z,1.52
2019-03-05T12:29:55.361Z,1.85
2019-03-05T12:32:28.358Z,1.50
2019-03-05T12:35:00.482Z,1.23
2019-03-05T12:37:32.115Z,1.00
2019-03-05T12:40:04.909Z,0.77
2019-03-05T12:42:36.561Z,0.77
2019-03-05T12:45:11.738Z,1.27
2019-03-05T12:47:43.742Z,1.03
2019-03-05T12:50:21.781Z,0.90
2019-03-05T12:52:54.843Z,1.33
2019-03-05T12:55:26.661Z,1.10
2019-03-05T12:57:58.557Z,1.10
2019-03-05T13:00:33.585Z,1.00
2019-03-05T13:03:05.434Z,1.83
2019-03-05T13:05:37.292Z,1.73
2019-03-05T13:08:09.064Z,1.67
2019-03-05T13:10:40.927Z,1.60
2019-03-05T13:13:13.952Z,1.70
2019-03-05T13:15:46.022Z,1.80
2019-03-05T13:18:17.872Z,1.20
2019-03-05T13:20:49.780Z,1.80
2019-03-05T13:23:22.203Z,1.60
2019-03-05T13:25:53.760Z,1.83
2019-03-05T13:28:25.542Z,1.87
2019-03-05T13:31:00.370Z,1.50
2019-03-05T13:33:33.595Z,1.93
2019-03-05T13:36:05.092Z,1.37
2019-03-05T13:38:41.850Z,1.43
2019-03-05T13:41:15.586Z,1.30
2019-03-05T13:43:46.800Z,1.30
2019-03-05T13:46:21.922Z,1.40
2019-03-05T13:49:02.630Z,1.70
2019-03-05T13:51:48.109Z,2.10
2019-03-05T13:54:36.830Z,1.70
2019-03-05T13:57:51.339Z,1.70
2019-03-05T14:00:23.207Z,2.00
2019-03-05T14:03:17.779Z,2.00
2019-03-05T14:06:15.293Z,1.83
2019-03-05T14:09:14.949Z,1.67
2019-03-05T14:11:48.953Z,1.87
2019-03-05T14:14:23.170Z,1.90
2019-03-05T14:17:02.893Z,2.00
2019-03-05T14:19:34.814Z,1.60
2019-03-05T14:22:06.601Z,2.10
2019-03-05T14:24:38.545Z,1.80
2019-03-05T14:27:10.071Z,1.53
2019-03-05T14:29:41.929Z,2.30
2019-03-05T14:32:13.748Z,1.73
2019-03-05T14:34:50.314Z,1.90
2019-03-05T14:37:22.160Z,2.93
2019-03-05T14:39:53.959Z,1.80
2019-03-05T14:42:25.670Z,1.97
2019-03-05T14:44:57.527Z,2.40
2019-03-05T14:47:29.310Z,2.40
2019-03-05T14:50:01.290Z,1.80
2019-03-05T14:52:33.087Z,2.00
2019-03-05T14:55:09.681Z,2.43
2019-03-05T14:57:41.380Z,2.63
2019-03-05T15:00:18.308Z,2.12
2019-03-05T15:02:50.011Z,2.07
2019-03-05T15:05:22.011Z,2.10
2019-03-05T15:07:53.606Z,2.47
2019-03-05T15:10:25.813Z,2.23
2019-03-05T15:12:57.564Z,2.10
2019-03-05T15:15:31.964Z,2.60
2019-03-05T15:18:03.679Z,2.23
2019-03-05T15:20:35.516Z,2.20
2019-03-05T15:23:08.475Z,2.23
2019-03-05T15:25:40.083Z,2.30
2019-03-05T15:28:11.729Z,1.97
2019-03-05T15:30:49.317Z,2.83
2019-03-05T15:33:23.972Z,2.47
2019-03-05T15:35:56.419Z,1.83
2019-03-05T15:38:43.564Z,2.50
2019-03-05T15:41:46.011Z,2.50
2019-03-05T15:44:21.959Z,2.23
2019-03-05T15:46:55.891Z,2.10
2019-03-05T15:50:17.246Z,2.23
2019-03-05T15:53:00.582Z,2.67
2019-03-05T15:55:34.108Z,2.43
2019-03-05T15:58:06.354Z,2.53
2019-03-05T16:00:37.939Z,2.30
2019-03-05T16:03:09.581Z,3.10
2019-03-05T16:05:41.311Z,3.03
2019-03-05T16:08:12.947Z,2.40
2019-03-05T16:10:44.553Z,3.13
2019-03-05T16:13:19.326Z,2.60
2019-03-05T16:15:49.439Z,2.30
2019-03-05T16:18:21.019Z,2.60
2019-03-05T16:20:52.927Z,2.87
2019-03-05T16:23:28.466Z,1.60
2019-03-05T16:25:58.884Z,1.37
2019-03-05T16:28:30.467Z,1.37
2019-03-05T16:31:03.605Z,1.40
2019-03-05T16:33:38.537Z,1.50
2019-03-05T16:36:29.126Z,1.60
2019-03-05T16:39:02.802Z,1.53
2019-03-05T16:41:57.387Z,1.40
2019-03-05T16:44:33.177Z,1.50
2019-03-05T16:47:18.902Z,1.70
2019-03-05T16:50:08.392Z,2.43
2019-03-05T16:52:47.391Z,2.60
2019-03-05T16:55:21.456Z,3.40
2019-03-05T16:57:55.912Z,4.20
2019-03-05T17:00:48.951Z,4.70
2019-03-05T17:03:21.112Z,3.63
2019-03-05T17:05:54.611Z,4.00
2019-03-05T17:08:33.914Z,3.57
2019-03-05T17:11:05.327Z,3.00
2019-03-05T17:13:37.007Z,3.00
2019-03-05T17:16:08.752Z,3.20
2019-03-05T17:18:40.738Z,3.47
2019-03-05T17:21:12.330Z,3.50
2019-03-05T17:23:46.792Z,3.83
2019-03-05T17:26:18.575Z,3.80
2019-03-05T17:28:50.506Z,2.90
2019-03-05T17:31:22.271Z,3.10
2019-03-05T17:33:55.208Z,3.53
2019-03-05T17:36:28.584Z,3.70
2019-03-05T17:39:01.991Z,3.87
2019-03-05T17:41:35.276Z,3.67
2019-03-05T17:44:07.190Z,4.50
2019-03-05T17:46:41.863Z,4.77
2019-03-05T17:49:15.490Z,5.37
2019-03-05T17:51:47.086Z,5.10
2019-03-05T17:54:18.771Z,5.57
2019-03-05T17:56:50.446Z,6.37
2019-03-05T17:59:22.275Z,5.60
2019-03-05T18:01:54.030Z,4.93
2019-03-05T18:04:25.742Z,5.67
2019-03-05T18:06:59.477Z,5.87
2019-03-05T18:09:31.181Z,5.50
2019-03-05T18:12:02.951Z,4.80
2019-03-05T18:14:34.614Z,4.30
2019-03-05T18:17:06.199Z,5.70
2019-03-05T18:19:39.673Z,5.17
2019-03-05T18:22:11.285Z,6.30
2019-03-05T18:24:42.996Z,5.57
2019-03-05T18:27:16.062Z,4.93
2019-03-05T18:29:48.133Z,4.43
2019-03-05T18:32:20.803Z,4.77
2019-03-05T18:34:52.553Z,5.00
2019-03-05T18:37:24.234Z,3.97
2019-03-05T18:39:55.819Z,5.40
2019-03-05T18:42:27.469Z,4.93
2019-03-05T18:44:59.509Z,5.03
2019-03-05T18:47:32.188Z,4.97
2019-03-05T18:50:10.003Z,5.13
2019-03-05T18:52:42.640Z,4.50
2019-03-05T18:55:17.862Z,4.03
2019-03-05T18:57:50.590Z,4.03
2019-03-05T19:00:34.477Z,4.60
2019-03-05T19:03:13.560Z,3.93
2019-03-05T19:05:46.576Z,3.93
2019-03-05T19:08:19.302Z,3.53
2019-03-05T19:10:51.811Z,3.67
2019-03-05T19:13:23.783Z,3.47
2019-03-05T19:15:57.802Z,3.40
2019-03-05T19:18:30.534Z,3.77
2019-03-05T19:21:03.561Z,3.00
2019-03-05T19:23:35.209Z,3.90
2019-03-05T19:26:07.911Z,4.43
2019-03-05T19:28:39.972Z,3.97
2019-03-05T19:31:11.825Z,3.80
2019-03-05T19:33:43.823Z,4.37
2019-03-05T19:36:15.561Z,3.77
2019-03-05T19:38:47.732Z,4.00
2019-03-05T19:41:40.117Z,4.87
2019-03-05T19:44:13.605Z,3.50
2019-03-05T19:46:45.223Z,4.27
2019-03-05T19:49:21.793Z,4.67
2019-03-05T19:54:49.324Z,4.00
2019-03-05T19:57:20.983Z,3.20
2019-03-05T19:59:52.720Z,4.00
2019-03-05T20:02:24.390Z,3.60
2019-03-05T20:04:55.994Z,3.67
2019-03-05T20:07:30.816Z,3.77
2019-03-05T20:10:05.201Z,3.40
2019-03-05T20:12:54.978Z,3.90
2019-03-05T20:15:28.343Z,4.23
2019-03-05T20:18:02.021Z,4.27
2019-03-05T20:20:35.395Z,3.80
2019-03-05T20:23:07.030Z,3.50
2019-03-05T20:25:38.800Z,3.03
2019-03-05T20:28:11.478Z,3.50
2019-03-05T20:30:43.111Z,4.00
2019-03-05T20:33:14.840Z,4.50
2019-03-05T20:35:49.294Z,3.20
2019-03-05T20:38:21.039Z,3.60
2019-03-05T20:40:53.642Z,3.73
2019-03-05T20:43:25.407Z,3.80
2019-03-05T20:46:04.982Z,3.97
2019-03-05T20:48:37.158Z,4.80
2019-03-05T20:51:09.890Z,4.37
2019-03-05T20:53:41.570Z,4.57
2019-03-05T20:56:14.233Z,3.83
2019-03-05T20:58:46.242Z,3.57
2019-03-05T21:01:19.937Z,4.90
2019-03-05T21:06:41.038Z,4.60
2019-03-05T21:09:21.472Z,4.10
2019-03-05T21:11:53.113Z,4.63
2019-03-05T21:14:25.731Z,4.60
2019-03-05T21:16:57.364Z,5.27
2019-03-05T21:19:29.105Z,5.03
2019-03-05T21:22:00.711Z,4.70
2019-03-05T21:24:32.297Z,5.70
2019-03-05T21:27:03.882Z,5.23
2019-03-05T21:29:35.903Z,4.53
2019-03-05T21:32:07.645Z,5.07
2019-03-05T21:34:39.435Z,6.23
2019-03-05T21:37:11.043Z,4.70
2019-03-05T21:39:42.819Z,4.60
2019-03-05T21:42:14.541Z,6.13
2019-03-05T21:44:46.247Z,5.30
2019-03-05T21:47:18.042Z,5.73
2019-03-05T21:49:49.566Z,6.23
2019-03-05T21:52:21.160Z,5.37
2019-03-05T21:54:53.338Z,5.30
2019-03-05T21:57:26.034Z,5.07
2019-03-05T21:59:57.674Z,5.33
2019-03-05T22:02:29.287Z,5.17
2019-03-05T22:05:01.173Z,4.50
2019-03-05T22:07:32.870Z,5.80
2019-03-05T22:10:07.659Z,4.73
2019-03-05T22:12:39.354Z,4.23
2019-03-05T22:15:27.008Z,4.07
2019-03-05T22:17:58.670Z,3.73
2019-03-05T22:20:31.389Z,3.90
2019-03-05T22:23:03.340Z,4.50
2019-03-05T22:25:35.087Z,3.97
2019-03-05T22:28:07.281Z,3.73
2019-03-05T22:30:40.068Z,3.03
2019-03-05T22:33:13.598Z,3.90
2019-03-05T22:35:45.331Z,3.80
2019-03-05T22:38:17.059Z,3.57
2019-03-05T22:40:48.769Z,3.83
2019-03-05T22:43:22.380Z,3.07
2019-03-05T22:45:54.201Z,3.40
2019-03-05T22:48:25.870Z,4.53
2019-03-05T22:50:57.600Z,3.37
2019-03-05T22:53:40.559Z,3.00
2019-03-05T22:59:33.047Z,3.50
2019-03-05T23:02:05.351Z,3.20
2019-03-05T23:04:45.096Z,3.70
2019-03-05T23:07:17.013Z,3.30
2019-03-05T23:09:49.548Z,3.00
2019-03-05T23:12:21.586Z,2.77
2019-03-05T23:14:55.902Z,2.83
2019-03-05T23:17:30.916Z,3.10
2019-03-05T23:20:02.737Z,2.40
2019-03-05T23:22:34.975Z,2.70
2019-03-05T23:25:09.269Z,2.37
2019-03-05T23:27:41.752Z,2.60
2019-03-05T23:30:19.573Z,3.80
2019-03-05T23:32:57.267Z,2.83
2019-03-05T23:35:28.977Z,2.90
2019-03-05T23:38:01.468Z,2.93
2019-03-05T23:40:34.864Z,3.47
2019-03-05T23:43:06.545Z,2.60
2019-03-05T23:45:38.287Z,2.33
2019-03-05T23:48:10.786Z,3.17
2019-03-05T23:50:43.129Z,2.50
2019-03-05T23:53:15.462Z,2.90
2019-03-05T23:55:47.054Z,3.00
2019-03-05T23:58:18.666Z,3.10
